Time;durP1;ratioP1;P1;durP2;ratioP2;P2;SDS_P1;SDS_P2;PMS_P1;PMS_P2;Temp;Humidity;BMP_temperature;BMP_pressure;BME280_temperature;BME280_humidity;BME280_pressure;Samples;Min_cycle;Max_cycle;Signal;HPM_P1;HPM_P2
2021/07/10 00:02:03;;;;;;;29.45;19.10;;;15.80;99.90;;;;;;5061969;28;20024;-58
2021/07/10 00:04:28;;;;;;;32.65;19.15;;;15.80;99.90;;;;;;5060884;28;20082;-58
2021/07/10 00:06:54;;;;;;;30.95;18.77;;;15.80;99.90;;;;;;5062842;28;20414;-58
2021/07/10 00:09:20;;;;;;;36.83;19.75;;;15.80;99.90;;;;;;5063173;28;20095;-58
2021/07/10 00:11:46;;;;;;;29.67;19.48;;;15.80;99.90;;;;;;5061673;28;20120;-58
2021/07/10 00:14:12;;;;;;;35.60;19.90;;;15.80;99.90;;;;;;5061610;28;20133;-58
2021/07/10 00:16:38;;;;;;;32.53;17.65;;;15.80;99.90;;;;;;5059857;28;20498;-58
2021/07/10 00:19:03;;;;;;;25.95;18.27;;;15.80;99.90;;;;;;5061715;28;20031;-57
2021/07/10 00:21:29;;;;;;;27.70;17.67;;;15.80;99.90;;;;;;5062392;28;20138;-58
2021/07/10 00:23:56;;;;;;;30.33;19.25;;;15.80;99.90;;;;;;5061774;28;20471;-58
2021/07/10 00:26:22;;;;;;;25.67;18.95;;;15.70;99.90;;;;;;5063092;28;20025;-58
2021/07/10 00:28:47;;;;;;;25.63;18.48;;;15.80;99.90;;;;;;5055618;28;20031;-58
2021/07/10 00:31:13;;;;;;;29.90;18.27;;;15.70;99.90;;;;;;5063777;28;20463;-58
2021/07/10 00:33:39;;;;;;;30.75;18.90;;;15.80;99.90;;;;;;5062261;28;20692;-58
2021/07/10 00:36:04;;;;;;;29.75;18.67;;;15.70;99.90;;;;;;5060525;28;20028;-58
2021/07/10 00:38:30;;;;;;;29.90;17.67;;;15.70;99.90;;;;;;5062366;28;20053;-58
2021/07/10 00:40:55;;;;;;;33.88;17.83;;;15.70;99.90;;;;;;5062128;28;20032;-58
2021/07/10 00:43:21;;;;;;;24.60;16.92;;;15.70;99.90;;;;;;5061052;28;20168;-58
2021/07/10 00:45:47;;;;;;;28.58;17.67;;;15.70;99.90;;;;;;5062488;28;20021;-58
2021/07/10 00:48:13;;;;;;;30.17;19.00;;;15.70;99.90;;;;;;5061812;28;20035;-58
2021/07/10 00:50:38;;;;;;;27.40;18.23;;;15.70;99.90;;;;;;5066168;28;20032;-58
2021/07/10 00:53:05;;;;;;;27.92;16.80;;;15.70;99.90;;;;;;5060462;28;20024;-57
2021/07/10 00:55:30;;;;;;;26.13;17.30;;;15.70;99.90;;;;;;5061630;28;20024;-57
2021/07/10 00:57:58;;;;;;;34.15;18.02;;;15.70;99.90;;;;;;5061256;28;20038;-57
2021/07/10 01:00:24;;;;;;;29.08;17.95;;;15.60;99.90;;;;;;5061846;28;20020;-57
2021/07/10 01:02:52;;;;;;;28.75;16.40;;;15.60;99.90;;;;;;5062297;28;20243;-57
2021/07/10 01:05:27;;;;;;;27.85;17.15;;;15.60;99.90;;;;;;5059199;28;20024;-56
2021/07/10 01:07:52;;;;;;;30.45;18.50;;;15.50;99.90;;;;;;5061377;28;20025;-56
2021/07/10 01:10:18;;;;;;;31.77;19.52;;;15.50;99.90;;;;;;5058552;28;20024;-56
2021/07/10 01:12:46;;;;;;;30.67;19.52;;;15.50;99.90;;;;;;5064277;28;20033;-57
2021/07/10 01:15:14;;;;;;;38.42;20.33;;;15.40;99.90;;;;;;5062380;28;20054;-57
2021/07/10 01:17:42;;;;;;;29.35;19.08;;;15.40;99.90;;;;;;5055414;28;20482;-57
2021/07/10 01:20:10;;;;;;;30.63;19.08;;;15.30;99.90;;;;;;5060648;28;20389;-57
2021/07/10 01:22:37;;;;;;;33.53;20.10;;;15.30;99.90;;;;;;5062009;28;20025;-57
2021/07/10 01:25:06;;;;;;;37.20;20.63;;;15.30;99.90;;;;;;5059317;28;20067;-57
2021/07/10 01:27:31;;;;;;;32.17;19.90;;;15.30;99.90;;;;;;5063473;28;20025;-57
2021/07/10 01:29:59;;;;;;;33.40;20.48;;;15.20;99.90;;;;;;5052579;28;20099;-57
2021/07/10 01:32:25;;;;;;;36.35;21.15;;;15.20;99.90;;;;;;5040794;28;20089;-57
2021/07/10 01:34:51;;;;;;;33.17;20.90;;;15.20;99.90;;;;;;5040283;28;20064;-57
2021/07/10 01:37:17;;;;;;;35.40;19.98;;;15.20;99.90;;;;;;5043099;28;20028;-57
2021/07/10 01:39:44;;;;;;;44.08;22.85;;;15.20;99.90;;;;;;5048403;28;20076;-57
2021/07/10 01:42:10;;;;;;;33.22;20.02;;;15.10;99.90;;;;;;5038192;28;20029;-57
2021/07/10 01:44:38;;;;;;;38.38;20.92;;;15.10;99.90;;;;;;5054309;28;20020;-57
2021/07/10 01:47:04;;;;;;;28.17;18.83;;;15.10;99.90;;;;;;5039575;28;20034;-57
2021/07/10 01:49:30;;;;;;;36.90;19.52;;;15.00;99.90;;;;;;5061318;28;20516;-57
2021/07/10 01:51:55;;;;;;;30.05;20.45;;;15.00;99.90;;;;;;5039173;28;20022;-57
2021/07/10 01:54:21;;;;;;;31.45;19.08;;;15.00;99.90;;;;;;5052584;28;20028;-57
2021/07/10 01:56:47;;;;;;;27.85;18.98;;;15.00;99.90;;;;;;5046619;28;20471;-57
2021/07/10 01:59:13;;;;;;;33.10;20.52;;;15.00;99.90;;;;;;5036585;28;20389;-57
2021/07/10 02:01:44;;;;;;;34.63;19.77;;;14.90;99.90;;;;;;5054018;28;20028;-57
2021/07/10 02:04:11;;;;;;;32.55;19.90;;;14.90;99.90;;;;;;5040662;28;20077;-57
2021/07/10 02:06:37;;;;;;;33.95;19.90;;;14.90;99.90;;;;;;5058961;28;20192;-57
2021/07/10 02:09:04;;;;;;;34.58;20.80;;;14.80;99.90;;;;;;5036960;28;20032;-57
2021/07/10 02:11:30;;;;;;;30.30;20.10;;;14.80;99.90;;;;;;5053096;28;20017;-57
2021/07/10 02:13:56;;;;;;;34.05;21.00;;;14.80;99.90;;;;;;5044955;28;20104;-57
2021/07/10 02:16:21;;;;;;;31.98;20.25;;;14.80;99.90;;;;;;5039886;28;20021;-57
2021/07/10 02:18:47;;;;;;;35.60;20.77;;;14.70;99.90;;;;;;5060098;28;20032;-57
2021/07/10 02:21:12;;;;;;;35.75;20.52;;;14.70;99.90;;;;;;5058509;28;20143;-57
2021/07/10 02:23:38;;;;;;;32.50;20.33;;;14.70;99.90;;;;;;5060114;28;20020;-57
2021/07/10 02:26:03;;;;;;;33.70;19.52;;;14.60;99.90;;;;;;5057824;28;20064;-57
2021/07/10 02:28:29;;;;;;;35.15;19.40;;;14.60;99.90;;;;;;5060702;28;20119;-57
2021/07/10 02:30:54;;;;;;;35.83;20.63;;;14.60;99.90;;;;;;5058631;28;20031;-57
2021/07/10 02:33:20;;;;;;;34.38;20.33;;;14.60;99.90;;;;;;5059866;28;20496;-57
2021/07/10 02:35:45;;;;;;;32.33;20.17;;;14.50;99.90;;;;;;5060049;28;20587;-57
2021/07/10 02:38:12;;;;;;;28.27;19.83;;;14.50;99.90;;;;;;5058008;28;20031;-57
2021/07/10 02:40:38;;;;;;;36.88;21.60;;;14.50;99.90;;;;;;5060391;28;20498;-57
2021/07/10 02:43:05;;;;;;;37.45;22.17;;;14.50;99.90;;;;;;5059027;28;20044;-57
2021/07/10 02:45:30;;;;;;;32.00;20.55;;;14.40;99.90;;;;;;5059704;28;20107;-57
2021/07/10 02:47:57;;;;;;;31.45;19.83;;;14.40;99.90;;;;;;5053400;28;20107;-57
2021/07/10 02:50:24;;;;;;;35.45;21.27;;;14.50;99.90;;;;;;5065258;28;20135;-57
2021/07/10 02:52:51;;;;;;;38.20;21.13;;;14.40;99.90;;;;;;5060152;28;20441;-57
2021/07/10 02:55:16;;;;;;;30.83;20.25;;;14.40;99.90;;;;;;5055683;28;20025;-57
2021/07/10 02:57:42;;;;;;;36.72;21.50;;;14.40;99.90;;;;;;5058770;28;20568;-57
2021/07/10 03:00:11;;;;;;;34.70;21.00;;;14.50;99.90;;;;;;5058803;28;20086;-57
2021/07/10 03:02:37;;;;;;;34.13;21.70;;;14.50;99.90;;;;;;5060520;28;20017;-57
2021/07/10 03:05:05;;;;;;;34.67;21.50;;;14.50;99.90;;;;;;5057458;28;20039;-57
2021/07/10 03:07:31;;;;;;;35.40;22.58;;;14.50;99.90;;;;;;5060305;28;20052;-57
2021/07/10 03:09:56;;;;;;;42.72;24.60;;;14.50;99.90;;;;;;5059527;28;20064;-57
2021/07/10 03:12:22;;;;;;;37.90;22.73;;;14.50;99.90;;;;;;5059072;28;20378;-57
2021/07/10 03:14:47;;;;;;;34.53;22.33;;;14.50;99.90;;;;;;5051949;28;20036;-57
2021/07/10 03:17:13;;;;;;;43.67;24.15;;;14.40;99.90;;;;;;5048640;28;20033;-57
2021/07/10 03:19:38;;;;;;;38.42;23.33;;;14.50;99.90;;;;;;5056746;28;20026;-57
2021/07/10 03:22:04;;;;;;;37.63;23.95;;;14.40;99.90;;;;;;5062165;28;20039;-57
2021/07/10 03:24:30;;;;;;;39.20;22.63;;;14.40;99.90;;;;;;5055940;28;20380;-56
2021/07/10 03:26:55;;;;;;;35.58;20.27;;;14.40;99.90;;;;;;5063528;28;20486;-56
2021/07/10 03:29:20;;;;;;;37.95;23.50;;;14.40;99.90;;;;;;5056163;28;20028;-57
2021/07/10 03:31:46;;;;;;;37.67;23.63;;;14.40;99.90;;;;;;5063126;28;20074;-57
2021/07/10 03:34:12;;;;;;;40.00;24.70;;;14.40;99.90;;;;;;5056216;28;20056;-57
2021/07/10 03:36:37;;;;;;;37.97;23.05;;;14.40;99.90;;;;;;5049363;28;20529;-57
2021/07/10 03:39:03;;;;;;;35.80;21.33;;;14.40;99.90;;;;;;5062462;28;20246;-57
2021/07/10 03:41:28;;;;;;;35.45;22.92;;;14.40;99.90;;;;;;5056417;28;20028;-57
2021/07/10 03:43:54;;;;;;;37.53;24.02;;;14.40;99.90;;;;;;5062753;28;20539;-57
2021/07/10 03:46:19;;;;;;;36.60;20.70;;;14.30;99.90;;;;;;5056268;28;20021;-57
2021/07/10 03:48:45;;;;;;;36.22;23.52;;;14.30;99.90;;;;;;5047620;28;20028;-57
2021/07/10 03:51:10;;;;;;;39.00;23.20;;;14.30;99.90;;;;;;5064726;28;20021;-57
2021/07/10 03:53:36;;;;;;;38.80;22.13;;;14.40;99.90;;;;;;5055768;28;20364;-57
2021/07/10 03:56:02;;;;;;;36.35;22.90;;;14.30;99.90;;;;;;5062717;28;20074;-57
2021/07/10 03:58:27;;;;;;;36.97;23.13;;;14.30;99.90;;;;;;5055968;28;20024;-57
2021/07/10 04:00:53;;;;;;;35.85;21.55;;;14.40;99.90;;;;;;5063227;28;20103;-57
2021/07/10 04:03:18;;;;;;;34.40;21.23;;;14.30;99.90;;;;;;5054200;28;20028;-57
2021/07/10 04:05:44;;;;;;;39.40;21.75;;;14.40;99.90;;;;;;5062770;28;20027;-57
2021/07/10 04:08:09;;;;;;;33.47;19.80;;;14.30;99.90;;;;;;5057049;28;20028;-57
2021/07/10 04:10:35;;;;;;;31.95;19.55;;;14.40;99.90;;;;;;5055812;28;20037;-57
2021/07/10 04:13:00;;;;;;;38.95;20.73;;;14.40;99.90;;;;;;5061940;28;20035;-57
2021/07/10 04:15:27;;;;;;;38.13;20.88;;;14.30;99.90;;;;;;5054725;28;20033;-57
2021/07/10 04:17:52;;;;;;;38.72;22.38;;;14.30;99.90;;;;;;5049633;28;20028;-57
2021/07/10 04:20:18;;;;;;;35.53;22.08;;;14.40;99.90;;;;;;5059177;28;20402;-57
2021/07/10 04:22:45;;;;;;;34.47;20.95;;;14.30;99.90;;;;;;5058126;28;20028;-57
2021/07/10 04:25:13;;;;;;;35.30;21.52;;;14.30;99.90;;;;;;5046089;28;20029;-57
2021/07/10 04:27:41;;;;;;;36.25;21.55;;;14.40;99.90;;;;;;5033040;28;20395;-56
2021/07/10 04:30:08;;;;;;;32.83;19.90;;;14.40;99.90;;;;;;5034851;28;20044;-57
2021/07/10 04:32:34;;;;;;;32.78;20.15;;;14.40;99.90;;;;;;5029203;28;20041;-56
2021/07/10 04:34:59;;;;;;;34.58;20.02;;;14.40;99.90;;;;;;5029946;28;20030;-56
2021/07/10 04:37:25;;;;;;;33.15;21.75;;;14.40;99.90;;;;;;5031702;28;20036;-56
2021/07/10 04:39:51;;;;;;;33.47;20.58;;;14.50;99.90;;;;;;5034751;28;20026;-58
2021/07/10 04:42:16;;;;;;;34.85;21.23;;;14.50;99.90;;;;;;5027685;28;20021;-56
2021/07/10 04:44:43;;;;;;;33.03;19.52;;;14.50;99.90;;;;;;5038005;28;20460;-56
2021/07/10 04:47:09;;;;;;;33.28;19.67;;;14.60;99.90;;;;;;5039281;28;20021;-56
2021/07/10 04:49:35;;;;;;;38.95;21.25;;;14.60;99.90;;;;;;5054197;28;20029;-57
2021/07/10 04:52:01;;;;;;;33.35;19.60;;;14.70;99.90;;;;;;5046549;28;20025;-57
2021/07/10 04:54:27;;;;;;;29.13;18.27;;;14.70;99.90;;;;;;5040725;28;20047;-57
2021/07/10 04:56:53;;;;;;;32.45;18.70;;;14.80;99.90;;;;;;5050540;28;20455;-57
2021/07/10 04:59:18;;;;;;;26.48;18.42;;;14.90;99.90;;;;;;5044472;28;20039;-57
2021/07/10 05:01:44;;;;;;;33.28;18.17;;;15.00;99.90;;;;;;5057766;28;20025;-57
2021/07/10 05:04:09;;;;;;;32.15;18.33;;;15.10;99.90;;;;;;5041549;28;20017;-57
2021/07/10 05:06:35;;;;;;;24.67;16.15;;;15.10;99.90;;;;;;5053868;28;20028;-57
2021/07/10 05:09:02;;;;;;;28.23;15.93;;;15.10;99.90;;;;;;5046027;28;20029;-63
2021/07/10 05:11:28;;;;;;;26.70;16.88;;;15.20;99.90;;;;;;5033200;28;20036;-58
2021/07/10 05:13:53;;;;;;;38.40;16.63;;;15.20;99.90;;;;;;5034743;28;20459;-57
2021/07/10 05:16:19;;;;;;;21.98;15.73;;;15.30;99.90;;;;;;5036513;28;20023;-57
2021/07/10 05:18:44;;;;;;;21.73;15.10;;;15.30;99.90;;;;;;5031196;28;20021;-58
2021/07/10 05:21:10;;;;;;;24.98;16.25;;;15.30;99.90;;;;;;5035445;28;20057;-58
2021/07/10 05:23:35;;;;;;;24.40;15.05;;;15.40;99.90;;;;;;5034187;28;20101;-58
2021/07/10 05:26:01;;;;;;;21.67;14.63;;;15.40;99.90;;;;;;5036915;28;20093;-58
2021/07/10 05:28:26;;;;;;;31.75;15.80;;;15.50;99.90;;;;;;5032180;28;20040;-58
2021/07/10 05:30:52;;;;;;;22.45;14.95;;;15.40;99.90;;;;;;5034696;28;20083;-58
2021/07/10 05:33:19;;;;;;;23.60;14.43;;;15.40;99.90;;;;;;5036296;28;20657;-58
2021/07/10 05:35:45;;;;;;;23.20;14.95;;;15.40;99.90;;;;;;5034170;28;20022;-58
2021/07/10 05:38:14;;;;;;;18.75;13.15;;;15.30;99.90;;;;;;5033738;28;20021;-58
2021/07/10 05:40:40;;;;;;;18.17;12.43;;;15.40;99.90;;;;;;5031550;28;20030;-58
2021/07/10 05:43:06;;;;;;;20.52;11.85;;;15.40;99.90;;;;;;5033562;28;20443;-57
2021/07/10 05:45:31;;;;;;;17.40;11.75;;;15.40;99.90;;;;;;5051593;28;20207;-57
2021/07/10 05:47:57;;;;;;;16.75;10.93;;;15.50;99.90;;;;;;5035575;28;20022;-57
2021/07/10 05:50:22;;;;;;;18.10;11.23;;;15.50;99.90;;;;;;5060557;28;20097;-57
2021/07/10 05:52:48;;;;;;;16.52;11.95;;;15.50;99.90;;;;;;5033331;28;20477;-57
2021/07/10 05:55:14;;;;;;;16.17;11.45;;;15.60;99.90;;;;;;5031679;28;20036;-57
2021/07/10 05:57:39;;;;;;;14.00;10.55;;;15.60;99.90;;;;;;5030206;28;20048;-57
2021/07/10 06:00:07;;;;;;;12.88;10.63;;;15.70;99.90;;;;;;5029837;28;20475;-56
2021/07/10 06:02:33;;;;;;;14.68;10.15;;;15.70;99.90;;;;;;5044527;28;20567;-57
2021/07/10 06:04:58;;;;;;;13.23;9.70;;;15.70;99.90;;;;;;5037076;28;20125;-57
2021/07/10 06:07:24;;;;;;;15.25;9.73;;;15.80;99.90;;;;;;5037453;28;20052;-57
2021/07/10 06:09:49;;;;;;;13.38;9.68;;;15.80;99.90;;;;;;5034873;28;20116;-57
2021/07/10 06:12:14;;;;;;;16.83;9.77;;;15.80;99.90;;;;;;5031580;28;20032;-57
2021/07/10 06:14:40;;;;;;;13.48;9.88;;;15.80;99.90;;;;;;5046757;28;20409;-57
2021/07/10 06:17:05;;;;;;;13.98;10.82;;;15.90;99.90;;;;;;5049767;28;20044;-57
2021/07/10 06:19:31;;;;;;;18.02;10.15;;;16.00;99.90;;;;;;5030588;28;20387;-57
2021/07/10 06:21:58;;;;;;;11.75;9.05;;;16.00;99.90;;;;;;5038158;28;20031;-58
2021/07/10 06:24:25;;;;;;;15.30;8.80;;;16.00;99.90;;;;;;5044319;28;20518;-57
2021/07/10 06:26:50;;;;;;;12.15;9.10;;;16.00;99.90;;;;;;5053942;28;20274;-58
2021/07/10 06:29:16;;;;;;;10.55;8.73;;;16.00;99.90;;;;;;5050158;28;20032;-58
2021/07/10 06:31:41;;;;;;;12.43;8.38;;;16.10;99.90;;;;;;5053024;28;20312;-57
2021/07/10 06:34:09;;;;;;;10.05;7.97;;;16.20;99.90;;;;;;5050359;28;20520;-57
2021/07/10 06:36:36;;;;;;;11.43;9.18;;;16.30;99.90;;;;;;5041384;28;20596;-57
2021/07/10 06:39:02;;;;;;;13.80;8.85;;;16.40;99.90;;;;;;5053773;28;20028;-57
2021/07/10 06:41:28;;;;;;;14.52;9.07;;;16.50;99.90;;;;;;5044157;28;20032;-58
2021/07/10 06:43:54;;;;;;;12.90;8.82;;;16.60;99.90;;;;;;5033590;28;20096;-58
2021/07/10 06:46:19;;;;;;;14.32;8.98;;;16.70;99.90;;;;;;5035990;28;20028;-57
2021/07/10 06:48:45;;;;;;;13.63;8.60;;;16.90;99.90;;;;;;5032426;28;20025;-57
2021/07/10 06:51:10;;;;;;;17.80;9.23;;;17.10;99.90;;;;;;5035615;28;20084;-57
2021/07/10 06:53:36;;;;;;;10.35;7.88;;;17.20;99.90;;;;;;5031181;28;20067;-57
2021/07/10 06:56:03;;;;;;;12.43;8.90;;;17.10;99.90;;;;;;5037367;28;20507;-57
2021/07/10 06:58:28;;;;;;;10.27;8.35;;;17.20;99.90;;;;;;5035359;28;20029;-57
2021/07/10 07:00:54;;;;;;;12.48;9.48;;;17.20;99.90;;;;;;5038923;28;20033;-56
2021/07/10 07:03:19;;;;;;;10.80;8.60;;;17.10;99.90;;;;;;5047251;28;20351;-57
2021/07/10 07:05:45;;;;;;;14.23;8.77;;;17.20;99.90;;;;;;5031103;28;20028;-57
2021/07/10 07:08:10;;;;;;;11.10;8.63;;;17.20;99.90;;;;;;5054761;28;20502;-56
2021/07/10 07:10:36;;;;;;;12.23;8.88;;;17.20;99.90;;;;;;5035081;28;20029;-57
2021/07/10 07:13:01;;;;;;;12.02;8.40;;;17.30;99.90;;;;;;5043169;28;20115;-57
2021/07/10 07:15:27;;;;;;;12.60;9.27;;;17.40;99.90;;;;;;5041538;28;20034;-57
2021/07/10 07:17:52;;;;;;;11.55;9.70;;;17.50;99.90;;;;;;5052894;28;20025;-57
2021/07/10 07:20:18;;;;;;;11.68;8.80;;;17.60;99.90;;;;;;5059848;28;20020;-57
2021/07/10 07:22:47;;;;;;;11.85;9.48;;;17.50;99.90;;;;;;5048153;28;20092;-57
2021/07/10 07:25:14;;;;;;;15.73;10.30;;;17.50;99.90;;;;;;5052882;28;20171;-56
2021/07/10 07:27:40;;;;;;;11.15;8.80;;;17.50;99.90;;;;;;5044387;28;20037;-57
2021/07/10 07:30:08;;;;;;;13.60;9.90;;;17.60;99.90;;;;;;5048430;28;20036;-57
2021/07/10 07:32:34;;;;;;;11.07;8.02;;;17.60;99.90;;;;;;5054146;28;20040;-56
2021/07/10 07:35:00;;;;;;;12.77;8.73;;;17.80;99.90;;;;;;5046868;28;20025;-56
2021/07/10 07:37:26;;;;;;;16.00;11.25;;;17.80;99.90;;;;;;5047236;28;20044;-56
2021/07/10 07:39:52;;;;;;;21.83;14.38;;;17.90;99.90;;;;;;5045979;28;20017;-56
2021/07/10 07:42:18;;;;;;;11.98;8.60;;;18.00;99.90;;;;;;5050852;28;20028;-57
2021/07/10 07:44:44;;;;;;;13.73;9.10;;;18.10;99.90;;;;;;5046562;28;20091;-57
2021/07/10 07:47:12;;;;;;;9.50;8.50;;;18.20;99.90;;;;;;5036380;28;20049;-57
2021/07/10 07:49:38;;;;;;;10.13;8.27;;;18.40;99.90;;;;;;5029190;28;20021;-57
2021/07/10 07:52:05;;;;;;;11.30;8.95;;;18.60;99.90;;;;;;5040889;28;20035;-57
2021/07/10 07:54:31;;;;;;;14.02;9.13;;;18.70;99.90;;;;;;5037890;28;20021;-57
2021/07/10 07:56:57;;;;;;;13.05;9.90;;;18.70;99.90;;;;;;5036479;28;20028;-56
2021/07/10 07:59:23;;;;;;;16.52;9.43;;;18.80;99.90;;;;;;5022317;28;20029;-57
2021/07/10 08:01:48;;;;;;;12.48;9.18;;;18.80;99.90;;;;;;5029811;28;20049;-57
2021/07/10 08:04:14;;;;;;;12.52;9.57;;;19.00;99.90;;;;;;5043455;28;20059;-57
2021/07/10 08:06:39;;;;;;;13.30;9.88;;;19.20;99.90;;;;;;5033556;28;20167;-57
2021/07/10 08:09:05;;;;;;;12.25;9.05;;;19.40;99.90;;;;;;5036618;28;20029;-57
2021/07/10 08:11:31;;;;;;;11.70;8.55;;;19.40;99.90;;;;;;5033617;28;20557;-57
2021/07/10 08:13:57;;;;;;;10.23;8.52;;;19.60;99.90;;;;;;5037038;28;20013;-57
2021/07/10 08:16:24;;;;;;;11.95;8.02;;;19.90;99.90;;;;;;5033819;28;20411;-57
2021/07/10 08:18:50;;;;;;;12.55;8.75;;;20.00;99.90;;;;;;5031964;28;20116;-57
2021/07/10 08:21:16;;;;;;;9.63;7.78;;;20.60;99.90;;;;;;5031288;28;20112;-57
2021/07/10 08:23:41;;;;;;;9.48;8.43;;;21.80;99.90;;;;;;5044439;28;20466;-58
2021/07/10 08:26:07;;;;;;;10.98;7.93;;;22.50;99.90;;;;;;5046038;28;20021;-56
2021/07/10 08:28:33;;;;;;;9.07;7.10;;;23.60;99.90;;;;;;5056485;28;20035;-57
2021/07/10 08:30:58;;;;;;;11.40;5.97;;;24.30;99.70;;;;;;5039961;28;20159;-57
2021/07/10 08:33:24;;;;;;;9.55;5.82;;;25.20;98.10;;;;;;5035045;28;20025;-57
2021/07/10 08:35:50;;;;;;;7.78;5.43;;;25.50;95.50;;;;;;5034466;28;20025;-57
2021/07/10 08:38:16;;;;;;;9.35;4.55;;;26.20;94.40;;;;;;5046033;28;20032;-58
2021/07/10 08:40:41;;;;;;;8.13;4.90;;;27.00;93.00;;;;;;5056458;28;20028;-57
2021/07/10 08:43:07;;;;;;;7.07;5.00;;;27.30;89.60;;;;;;5047918;28;20075;-60
2021/07/10 08:45:34;;;;;;;7.25;5.80;;;27.90;86.90;;;;;;5057176;28;20036;-57
2021/07/10 08:48:02;;;;;;;6.78;5.88;;;28.10;84.40;;;;;;5049225;28;20041;-58
2021/07/10 08:50:28;;;;;;;8.13;6.22;;;28.70;80.90;;;;;;5043143;28;20040;-57
2021/07/10 08:52:54;;;;;;;5.53;4.97;;;29.40;76.40;;;;;;5040058;28;20033;-59
2021/07/10 08:55:20;;;;;;;8.63;5.55;;;29.30;74.10;;;;;;5037960;28;20024;-57
2021/07/10 08:57:46;;;;;;;7.82;5.10;;;29.20;73.20;;;;;;5044222;28;20033;-58
2021/07/10 09:00:16;;;;;;;5.53;4.75;;;29.00;74.80;;;;;;5044257;28;20044;-57
2021/07/10 09:02:45;;;;;;;6.82;6.13;;;29.80;71.50;;;;;;5059834;28;20056;-58
2021/07/10 09:05:14;;;;;;;10.90;6.30;;;29.80;69.50;;;;;;5051650;28;20018;-58
2021/07/10 09:08:19;;;;;;;10.05;5.25;;;28.70;72.30;;;;;;5055833;28;20048;-57
2021/07/10 09:11:09;;;;;;;6.57;5.57;;;28.90;72.60;;;;;;5047601;28;20025;-57
2021/07/10 09:13:38;;;;;;;9.10;6.13;;;28.50;72.00;;;;;;5048175;28;20067;-57
2021/07/10 09:16:10;;;;;;;9.65;6.15;;;28.60;74.10;;;;;;5052452;28;20104;-57
2021/07/10 09:18:38;;;;;;;7.97;5.90;;;29.00;73.50;;;;;;5063272;28;20097;-58
2021/07/10 09:21:04;;;;;;;9.55;6.05;;;28.60;71.00;;;;;;5057558;28;20063;-57
2021/07/10 09:23:38;;;;;;;6.38;5.28;;;28.60;72.30;;;;;;5033046;28;20518;-57
2021/07/10 09:26:15;;;;;;;6.65;5.60;;;29.10;73.70;;;;;;5031994;28;20014;-57
2021/07/10 09:28:42;;;;;;;8.23;6.95;;;29.90;69.20;;;;;;5042012;28;20506;-58
2021/07/10 09:31:36;;;;;;;7.60;6.80;;;28.90;69.60;;;;;;5044351;28;20051;-58
2021/07/10 09:34:14;;;;;;;8.73;5.95;;;28.90;68.90;;;;;;5043841;28;20036;-58
2021/07/10 09:36:58;;;;;;;7.70;6.95;;;28.90;73.30;;;;;;5041387;28;20036;-58
2021/07/10 09:39:29;;;;;;;11.15;7.13;;;29.10;69.40;;;;;;5041707;28;20071;-58
2021/07/10 09:41:56;;;;;;;9.57;6.80;;;28.50;69.40;;;;;;5042810;28;20109;-58
2021/07/10 09:44:22;;;;;;;8.30;5.97;;;28.20;71.20;;;;;;5041914;28;20059;-57
2021/07/10 09:46:47;;;;;;;12.43;7.97;;;28.10;73.00;;;;;;5043148;28;20044;-57
2021/07/10 09:49:24;;;;;;;10.95;7.68;;;28.10;71.10;;;;;;5044030;28;20509;-57
2021/07/10 09:51:57;;;;;;;6.70;5.97;;;29.30;71.30;;;;;;5044591;28;20387;-58
2021/07/10 09:54:27;;;;;;;6.70;5.97;;;30.40;66.90;;;;;;5041599;28;20062;-58
2021/07/10 09:57:05;;;;;;;10.07;7.43;;;30.90;64.50;;;;;;5041647;28;20029;-57
2021/07/10 09:59:35;;;;;;;10.82;8.13;;;30.80;63.10;;;;;;5043561;28;20427;-57
2021/07/10 10:02:07;;;;;;;7.07;6.38;;;29.60;63.40;;;;;;5049393;28;20078;-58
2021/07/10 10:04:33;;;;;;;7.00;5.78;;;28.30;67.20;;;;;;5035619;28;20095;-58
2021/07/10 10:07:00;;;;;;;10.68;5.80;;;28.70;69.70;;;;;;5045916;28;20177;-57
2021/07/10 10:09:27;;;;;;;10.85;6.28;;;29.20;68.30;;;;;;5047121;28;20040;-57
2021/07/10 10:11:57;;;;;;;7.72;6.20;;;28.60;67.30;;;;;;5041982;28;20057;-57
2021/07/10 10:14:24;;;;;;;7.85;6.13;;;27.80;70.10;;;;;;5058202;28;20044;-57
2021/07/10 10:16:50;;;;;;;7.55;6.40;;;27.00;72.00;;;;;;5056420;28;20064;-57
2021/07/10 10:19:17;;;;;;;7.30;6.15;;;27.10;72.00;;;;;;5057831;28;20426;-57
2021/07/10 10:21:45;;;;;;;8.30;5.68;;;26.50;73.70;;;;;;5048594;28;20056;-58
2021/07/10 10:24:12;;;;;;;8.82;7.00;;;26.40;74.30;;;;;;5062188;28;20070;-57
2021/07/10 10:26:39;;;;;;;10.15;7.00;;;25.90;71.50;;;;;;5061993;28;20024;-57
2021/07/10 10:29:07;;;;;;;7.60;6.90;;;25.50;74.20;;;;;;5061908;28;20032;-56
2021/07/10 10:31:33;;;;;;;10.63;6.97;;;24.70;77.70;;;;;;5057573;28;20087;-59
2021/07/10 10:33:59;;;;;;;9.77;7.53;;;25.20;77.30;;;;;;5058220;28;20039;-58
2021/07/10 10:36:25;;;;;;;7.38;5.68;;;24.70;78.10;;;;;;5056856;28;20052;-57
2021/07/10 10:38:51;;;;;;;9.43;7.55;;;24.90;82.40;;;;;;5064125;28;20052;-58
2021/07/10 10:41:18;;;;;;;6.68;5.88;;;26.10;77.80;;;;;;5043017;28;20095;-57
2021/07/10 10:43:47;;;;;;;8.15;5.35;;;26.40;74.40;;;;;;5063665;28;20078;-57
2021/07/10 10:46:19;;;;;;;10.13;5.95;;;27.50;72.70;;;;;;5054218;28;20056;-57
2021/07/10 10:48:45;;;;;;;8.20;5.35;;;28.00;70.00;;;;;;5065239;28;20017;-57
2021/07/10 10:51:32;;;;;;;7.43;5.97;;;28.50;70.40;;;;;;5063058;28;20031;-57
2021/07/10 10:54:16;;;;;;;6.90;4.93;;;28.20;68.20;;;;;;5056311;28;20029;-57
2021/07/10 10:56:42;;;;;;;5.40;4.90;;;27.60;69.00;;;;;;5057785;28;20025;-57
2021/07/10 10:59:37;;;;;;;8.27;6.18;;;27.50;71.70;;;;;;5059956;28;20047;-58
2021/07/10 11:02:23;;;;;;;6.32;4.80;;;27.40;72.00;;;;;;5060154;28;20020;-57
2021/07/10 11:04:55;;;;;;;10.02;5.82;;;28.40;71.10;;;;;;5060922;28;20023;-57
2021/07/10 11:07:22;;;;;;;5.18;4.03;;;28.70;69.60;;;;;;5051780;28;20047;-57
2021/07/10 11:10:02;;;;;;;6.32;4.57;;;29.30;67.60;;;;;;5059564;28;20032;-57
2021/07/10 11:12:46;;;;;;;4.63;3.97;;;29.30;65.50;;;;;;5052907;28;20063;-58
2021/07/10 11:15:24;;;;;;;5.93;4.28;;;30.10;67.30;;;;;;5041621;28;20401;-57
2021/07/10 11:17:50;;;;;;;8.07;5.32;;;29.90;68.50;;;;;;5041759;28;20029;-57
2021/07/10 11:20:41;;;;;;;6.18;5.15;;;29.70;65.60;;;;;;5038649;28;20474;-57
2021/07/10 11:23:08;;;;;;;5.28;4.60;;;29.60;65.50;;;;;;5042751;28;20013;-58
2021/07/10 11:25:49;;;;;;;4.97;4.47;;;30.10;64.40;;;;;;5041334;28;20108;-58
2021/07/10 11:28:16;;;;;;;7.80;4.35;;;29.40;64.80;;;;;;5042918;28;20025;-58
2021/07/10 11:30:50;;;;;;;8.40;4.88;;;30.00;66.80;;;;;;5052837;28;20040;-58
2021/07/10 11:33:16;;;;;;;6.22;3.97;;;30.80;64.00;;;;;;5048096;28;20032;-57
2021/07/10 11:35:44;;;;;;;5.35;4.70;;;30.30;64.50;;;;;;5041317;28;20037;-57
2021/07/10 11:38:41;;;;;;;5.60;4.20;;;30.70;65.20;;;;;;5038006;28;20032;-58
2021/07/10 11:41:07;;;;;;;5.75;4.00;;;30.60;63.80;;;;;;5038348;28;20479;-57
2021/07/10 11:43:40;;;;;;;8.10;4.45;;;31.30;64.70;;;;;;5032990;28;20068;-57
2021/07/10 11:46:05;;;;;;;4.70;3.72;;;31.80;62.60;;;;;;5033511;28;20033;-57
2021/07/10 11:48:32;;;;;;;4.57;4.00;;;31.90;62.60;;;;;;5033252;28;20033;-57
2021/07/10 11:51:04;;;;;;;5.18;3.78;;;31.20;59.60;;;;;;5036712;28;20025;-57
2021/07/10 11:53:31;;;;;;;4.50;3.88;;;30.30;61.70;;;;;;5037320;28;20037;-57
2021/07/10 11:55:58;;;;;;;4.75;4.13;;;30.40;62.30;;;;;;5052319;28;20020;-58
2021/07/10 11:58:26;;;;;;;4.55;3.92;;;30.60;63.10;;;;;;5037500;28;20268;-57
2021/07/10 12:00:51;;;;;;;5.32;3.90;;;30.90;59.20;;;;;;5037510;28;20025;-57
2021/07/10 12:03:22;;;;;;;5.00;3.97;;;31.20;61.30;;;;;;5032140;28;20025;-57
2021/07/10 12:05:48;;;;;;;4.60;4.07;;;31.40;60.50;;;;;;5032910;28;20101;-57
2021/07/10 12:08:15;;;;;;;4.57;3.67;;;31.10;61.70;;;;;;5044923;28;20027;-58
2021/07/10 12:10:43;;;;;;;6.40;4.07;;;30.80;64.10;;;;;;5034654;28;20030;-57
2021/07/10 12:13:10;;;;;;;8.50;4.53;;;30.10;60.80;;;;;;5035428;28;20029;-58
2021/07/10 12:15:42;;;;;;;5.88;4.72;;;28.90;63.40;;;;;;5047621;28;20110;-56
2021/07/10 12:18:10;;;;;;;6.57;4.65;;;28.00;66.80;;;;;;5047701;28;20021;-58
2021/07/10 12:20:42;;;;;;;4.57;4.18;;;27.40;67.40;;;;;;5037844;28;20033;-57
2021/07/10 12:23:16;;;;;;;6.72;4.55;;;27.20;70.00;;;;;;5045897;28;20021;-57
2021/07/10 12:25:52;;;;;;;5.75;3.90;;;27.10;68.10;;;;;;5036642;28;20032;-58
2021/07/10 12:28:38;;;;;;;8.32;4.55;;;27.50;70.70;;;;;;5043190;28;20032;-57
2021/07/10 12:31:19;;;;;;;8.77;4.47;;;27.70;69.10;;;;;;5042537;28;20095;-57
2021/07/10 12:33:45;;;;;;;5.32;4.63;;;27.90;66.50;;;;;;5037550;28;20406;-57
2021/07/10 12:36:13;;;;;;;6.55;4.78;;;27.50;70.60;;;;;;5039144;28;20509;-57
2021/07/10 12:38:51;;;;;;;6.63;4.60;;;27.30;69.60;;;;;;5038356;28;20084;-57